createdAt,value
2023-03-10T00:01:36.214Z,-1.30
2023-03-10T00:04:08.064Z,-1.30
2023-03-10T00:06:39.946Z,-1.30
2023-03-10T00:09:12.373Z,-1.30
2023-03-10T00:11:46.508Z,-1.30
2023-03-10T00:14:18.902Z,-1.30
2023-03-10T00:16:53.024Z,-1.30
2023-03-10T00:19:26.632Z,-1.40
2023-03-10T00:21:58.422Z,-1.40
2023-03-10T00:24:30.201Z,-1.40
2023-03-10T00:27:02.005Z,-1.40
2023-03-10T00:29:33.829Z,-1.40
2023-03-10T00:32:05.776Z,-1.40
2023-03-10T00:34:37.592Z,-1.40
2023-03-10T00:37:10.165Z,-1.40
2023-03-10T00:39:42.260Z,-1.40
2023-03-10T00:42:14.092Z,-1.40
2023-03-10T00:44:51.357Z,-1.40
2023-03-10T00:47:23.178Z,-1.30
2023-03-10T00:49:55.022Z,-1.30
2023-03-10T00:52:26.864Z,-1.30
2023-03-10T00:55:01.298Z,-1.30
2023-03-10T00:57:35.341Z,-1.30
2023-03-10T01:00:07.992Z,-1.30
2023-03-10T01:02:39.758Z,-1.30
2023-03-10T01:05:11.722Z,-1.30
2023-03-10T01:07:43.469Z,-1.30
2023-03-10T01:10:15.480Z,-1.30
2023-03-10T01:12:47.279Z,-1.20
2023-03-10T01:15:19.172Z,-1.20
2023-03-10T01:17:50.969Z,-1.20
2023-03-10T01:20:22.828Z,-1.20
2023-03-10T01:22:54.642Z,-1.20
2023-03-10T01:25:26.698Z,-1.20
2023-03-10T01:27:58.467Z,-1.20
2023-03-10T01:30:32.367Z,-1.20
2023-03-10T01:33:04.217Z,-1.20
2023-03-10T01:35:38.430Z,-1.30
2023-03-10T01:38:10.554Z,-1.30
2023-03-10T01:40:47.371Z,-1.30
2023-03-10T01:43:19.146Z,-1.30
2023-03-10T01:45:50.946Z,-1.30
2023-03-10T01:48:23.036Z,-1.40
2023-03-10T01:50:55.818Z,-1.40
2023-03-10T01:53:28.489Z,-1.50
2023-03-10T01:56:03.181Z,-1.40
2023-03-10T01:58:38.752Z,-1.50
2023-03-10T02:01:11.026Z,-1.50
2023-03-10T02:04:15.417Z,-1.50
2023-03-10T02:06:51.296Z,-1.50
2023-03-10T02:09:24.484Z,-1.60
2023-03-10T02:11:57.651Z,-1.60
2023-03-10T02:14:29.597Z,-1.60
2023-03-10T02:17:04.328Z,-1.60
2023-03-10T02:19:42.006Z,-1.70
2023-03-10T02:22:17.339Z,-1.70
2023-03-10T02:25:01.961Z,-1.70
2023-03-10T02:27:34.518Z,-1.80
2023-03-10T02:30:17.749Z,-1.80
2023-03-10T02:32:54.711Z,-1.80
2023-03-10T02:35:26.521Z,-1.80
2023-03-10T02:38:00.662Z,-1.80
2023-03-10T02:40:37.780Z,-1.80
2023-03-10T02:43:28.165Z,-1.90
2023-03-10T02:46:01.758Z,-1.90
2023-03-10T02:48:35.098Z,-1.90
2023-03-10T02:51:16.134Z,-1.90
2023-03-10T02:53:47.987Z,-2.00
2023-03-10T02:56:19.793Z,-2.00
2023-03-10T02:58:51.605Z,-2.00
2023-03-10T03:01:23.461Z,-2.00
2023-03-10T03:03:55.419Z,-2.00
2023-03-10T03:06:27.258Z,-2.00
2023-03-10T03:08:59.093Z,-2.00
2023-03-10T03:11:30.964Z,-2.00
2023-03-10T03:14:02.741Z,-2.00
2023-03-10T03:16:34.533Z,-2.10
2023-03-10T03:19:08.690Z,-2.10
2023-03-10T03:21:40.458Z,-2.10
2023-03-10T03:24:12.317Z,-2.10
2023-03-10T03:26:44.543Z,-2.20
2023-03-10T03:29:17.660Z,-2.10
2023-03-10T03:31:49.598Z,-2.20
2023-03-10T03:37:31.544Z,-2.20
2023-03-10T03:40:12.767Z,-2.20
2023-03-10T03:42:46.033Z,-2.20
2023-03-10T03:45:19.570Z,-2.20
2023-03-10T03:47:51.556Z,-2.20
2023-03-10T03:50:23.400Z,-2.20
2023-03-10T03:52:55.214Z,-2.20
2023-03-10T03:55:27.029Z,-2.20
2023-03-10T03:57:58.828Z,-2.20
2023-03-10T04:00:34.274Z,-2.20
2023-03-10T04:03:06.652Z,-2.20
2023-03-10T04:05:38.707Z,-2.20
2023-03-10T04:08:11.096Z,-2.20
2023-03-10T04:10:45.227Z,-2.20
2023-03-10T04:13:19.758Z,-2.30
2023-03-10T04:15:58.086Z,-2.20
2023-03-10T04:18:29.958Z,-2.20
2023-03-10T04:21:01.793Z,-2.30
2023-03-10T04:23:33.620Z,-2.20
2023-03-10T04:26:08.931Z,-2.30
2023-03-10T04:28:42.829Z,-2.30
2023-03-10T04:31:15.991Z,-2.30
2023-03-10T04:33:48.025Z,-2.30
2023-03-10T04:36:22.696Z,-2.30
2023-03-10T04:38:57.657Z,-2.30
2023-03-10T04:41:29.501Z,-2.20
2023-03-10T04:44:01.258Z,-2.30
2023-03-10T04:46:33.219Z,-2.30
2023-03-10T04:49:05.067Z,-2.30
2023-03-10T04:51:36.865Z,-2.30
2023-03-10T04:54:08.648Z,-2.30
2023-03-10T04:56:40.603Z,-2.30
2023-03-10T04:59:12.554Z,-2.30
2023-03-10T05:01:44.439Z,-2.30
2023-03-10T05:04:16.298Z,-2.30
2023-03-10T05:06:52.062Z,-2.30
2023-03-10T05:09:23.856Z,-2.30
2023-03-10T05:11:55.663Z,-2.30
2023-03-10T05:14:27.478Z,-2.30
2023-03-10T05:16:59.475Z,-2.30
2023-03-10T05:19:33.192Z,-2.30
2023-03-10T05:22:06.123Z,-2.30
2023-03-10T05:24:41.261Z,-2.30
2023-03-10T05:27:15.048Z,-2.30
2023-03-10T05:29:46.844Z,-2.30
2023-03-10T05:32:18.791Z,-2.30
2023-03-10T05:34:50.598Z,-2.30
2023-03-10T05:37:22.476Z,-2.30
2023-03-10T05:39:54.341Z,-2.30
2023-03-10T05:42:26.191Z,-2.30
2023-03-10T05:44:57.925Z,-2.30
2023-03-10T05:47:31.806Z,-2.30
2023-03-10T05:50:04.253Z,-2.30
2023-03-10T05:52:36.956Z,-2.30
2023-03-10T05:55:11.429Z,-2.30
2023-03-10T05:57:43.295Z,-2.30
2023-03-10T06:00:15.318Z,-2.30
2023-03-10T06:02:49.330Z,-2.30
2023-03-10T06:05:21.113Z,-2.20
2023-03-10T06:07:53.032Z,-2.20
2023-03-10T06:10:24.866Z,-2.20
2023-03-10T06:12:56.741Z,-2.20
2023-03-10T06:15:28.525Z,-2.20
2023-03-10T06:18:00.359Z,-2.20
2023-03-10T06:20:32.209Z,-2.20
2023-03-10T06:23:04.054Z,-2.20
2023-03-10T06:25:38.686Z,-2.20
2023-03-10T06:28:11.263Z,-2.20
2023-03-10T06:30:45.933Z,-2.20
2023-03-10T06:33:19.871Z,-2.10
2023-03-10T06:35:56.747Z,-2.10
2023-03-10T06:38:28.739Z,-2.10
2023-03-10T06:41:00.523Z,-2.10
2023-03-10T06:43:33.329Z,-2.00
2023-03-10T06:46:06.110Z,-2.00
2023-03-10T06:48:38.708Z,-2.00
2023-03-10T06:51:14.050Z,-1.90
2023-03-10T06:53:46.157Z,-1.90
2023-03-10T06:56:20.257Z,-1.90
2023-03-10T06:58:52.059Z,-1.90
2023-03-10T07:01:27.077Z,-1.80
2023-03-10T07:03:59.876Z,-1.90
2023-03-10T07:06:31.684Z,-1.80
2023-03-10T07:09:03.926Z,-1.70
2023-03-10T07:11:38.212Z,-1.70
2023-03-10T07:14:10.026Z,-1.70
2023-03-10T07:16:41.942Z,-1.70
2023-03-10T07:19:15.983Z,-1.60
2023-03-10T07:21:47.953Z,-1.60
2023-03-10T07:24:19.880Z,-1.60
2023-03-10T07:26:51.861Z,-1.60
2023-03-10T07:29:26.464Z,-1.60
2023-03-10T07:32:01.071Z,-1.60
2023-03-10T07:34:35.267Z,-1.50
2023-03-10T07:37:07.034Z,-1.50
2023-03-10T07:39:38.813Z,-1.50
2023-03-10T07:42:10.790Z,-1.50
2023-03-10T07:44:42.576Z,-1.50
2023-03-10T07:47:14.452Z,-1.50
2023-03-10T07:49:46.949Z,-1.40
2023-03-10T07:52:19.568Z,-1.40
2023-03-10T07:54:53.680Z,-1.40
2023-03-10T07:57:25.495Z,-1.30
2023-03-10T07:59:57.310Z,-1.30
2023-03-10T08:02:29.180Z,-1.30
2023-03-10T08:05:01.240Z,-1.40
2023-03-10T08:07:35.737Z,-1.30
2023-03-10T08:10:07.993Z,-1.30
2023-03-10T08:12:39.774Z,-1.30
2023-03-10T08:15:14.763Z,-1.30
2023-03-10T08:17:46.574Z,-1.20
2023-03-10T08:20:18.501Z,-1.20
2023-03-10T08:22:52.325Z,-1.20
2023-03-10T08:25:26.367Z,-1.30
2023-03-10T08:28:00.535Z,-1.20
2023-03-10T08:30:35.379Z,-1.20
2023-03-10T08:33:10.137Z,-1.10
2023-03-10T08:35:41.977Z,-1.20
2023-03-10T08:38:13.795Z,-1.20
2023-03-10T08:40:45.829Z,-1.20
2023-03-10T08:43:20.082Z,-1.20
2023-03-10T08:45:51.956Z,-1.20
2023-03-10T08:48:23.704Z,-1.20
2023-03-10T08:50:55.526Z,-1.10
2023-03-10T08:53:27.337Z,-1.00
2023-03-10T08:56:01.609Z,-1.00
2023-03-10T08:58:33.798Z,-0.90
2023-03-10T09:01:05.792Z,-0.90
2023-03-10T09:03:39.667Z,-0.80
2023-03-10T09:06:11.675Z,-0.80
2023-03-10T09:08:43.652Z,-0.80
2023-03-10T09:11:16.733Z,-0.80
2023-03-10T09:13:48.560Z,-0.80
2023-03-10T09:16:20.644Z,-0.70
2023-03-10T09:18:52.535Z,-0.70
2023-03-10T09:21:24.621Z,-0.70
2023-03-10T09:23:56.509Z,-0.70
2023-03-10T09:26:28.338Z,-0.70
2023-03-10T09:29:00.265Z,-0.60
2023-03-10T09:31:33.509Z,-0.70
2023-03-10T09:34:05.503Z,-0.70
2023-03-10T09:36:37.804Z,-0.70
2023-03-10T09:39:09.623Z,-0.60
2023-03-10T09:41:41.414Z,-0.50
2023-03-10T09:44:30.731Z,-0.50
2023-03-10T09:47:20.034Z,-0.50
2023-03-10T09:50:10.756Z,-0.40
2023-03-10T09:52:46.914Z,-0.50
2023-03-10T09:55:25.860Z,-0.50
2023-03-10T09:57:58.064Z,-0.50
2023-03-10T10:00:33.677Z,-0.40
2023-03-10T10:03:09.140Z,-0.40
2023-03-10T10:05:42.841Z,-0.30
2023-03-10T10:08:34.644Z,-0.20
2023-03-10T10:11:10.644Z,-0.10
2023-03-10T10:13:46.131Z,0.00
2023-03-10T10:16:33.564Z,0.20
2023-03-10T10:19:20.061Z,0.10
2023-03-10T10:21:52.525Z,0.10
2023-03-10T10:24:26.620Z,0.00
2023-03-10T10:26:58.499Z,0.10
2023-03-10T10:29:36.808Z,0.10
2023-03-10T10:32:10.593Z,0.20
2023-03-10T10:34:43.398Z,0.20
2023-03-10T10:37:23.877Z,0.20
2023-03-10T10:39:57.060Z,0.40
2023-03-10T10:42:33.733Z,0.60
2023-03-10T10:45:07.102Z,0.80
2023-03-10T10:47:52.627Z,1.10
2023-03-10T10:50:26.169Z,1.30
2023-03-10T10:53:15.984Z,1.40
2023-03-10T10:56:01.673Z,1.40
2023-03-10T10:58:35.153Z,1.40
2023-03-10T11:01:15.593Z,1.30
2023-03-10T11:03:48.162Z,1.20
2023-03-10T11:06:32.307Z,1.10
2023-03-10T11:09:07.885Z,1.20
2023-03-10T11:11:46.941Z,1.20
2023-03-10T11:14:39.080Z,1.10
2023-03-10T11:17:14.617Z,1.20
2023-03-10T11:20:18.325Z,1.30
2023-03-10T11:23:08.832Z,1.20
2023-03-10T11:25:47.307Z,1.20
2023-03-10T11:28:31.694Z,0.90
2023-03-10T11:31:11.927Z,0.70
2023-03-10T11:33:46.499Z,0.60
2023-03-10T11:36:21.446Z,0.60
2023-03-10T11:38:55.422Z,0.60
2023-03-10T11:41:34.315Z,0.60
2023-03-10T11:44:21.301Z,0.60
2023-03-10T11:47:04.667Z,0.60
2023-03-10T11:49:37.452Z,0.70
2023-03-10T11:52:22.941Z,0.80
2023-03-10T11:55:00.455Z,0.90
2023-03-10T11:57:40.605Z,0.90
2023-03-10T12:00:18.798Z,0.90
2023-03-10T12:03:08.861Z,0.90
2023-03-10T12:05:47.739Z,0.80
2023-03-10T12:08:21.201Z,0.90
2023-03-10T12:10:56.321Z,0.80
2023-03-10T12:13:33.093Z,0.80
2023-03-10T12:16:06.823Z,0.90
2023-03-10T12:18:38.668Z,0.80
2023-03-10T12:21:16.894Z,0.80
2023-03-10T12:23:53.246Z,0.90
2023-03-10T12:26:41.029Z,0.90
2023-03-10T12:29:24.672Z,1.00
2023-03-10T12:31:56.775Z,1.10
2023-03-10T12:34:33.837Z,1.20
2023-03-10T12:37:05.779Z,1.20
2023-03-10T12:39:46.698Z,1.30
2023-03-10T12:42:35.133Z,1.30
2023-03-10T12:45:09.430Z,1.30
2023-03-10T12:47:47.666Z,1.20
2023-03-10T12:50:35.865Z,1.20
2023-03-10T12:53:26.366Z,1.10
2023-03-10T12:56:13.531Z,1.10
2023-03-10T12:58:47.344Z,1.10
2023-03-10T13:01:22.414Z,1.20
2023-03-10T13:03:55.563Z,1.30
2023-03-10T13:06:34.761Z,1.30
2023-03-10T13:09:12.631Z,1.30
2023-03-10T13:11:49.074Z,1.40
2023-03-10T13:14:22.491Z,1.40
2023-03-10T13:17:00.289Z,1.20
2023-03-10T13:19:33.907Z,1.20
2023-03-10T13:22:05.837Z,1.00
2023-03-10T13:24:40.603Z,1.00
2023-03-10T13:27:15.194Z,0.90
2023-03-10T13:30:02.523Z,0.90
2023-03-10T13:32:34.535Z,0.90
2023-03-10T13:35:21.427Z,0.90
2023-03-10T13:38:07.136Z,1.00
2023-03-10T13:40:43.887Z,1.00
2023-03-10T13:43:24.662Z,1.00
2023-03-10T13:45:57.877Z,1.00
2023-03-10T13:48:31.592Z,0.90
2023-03-10T13:51:23.978Z,0.90
2023-03-10T13:54:01.493Z,0.90
2023-03-10T13:56:35.534Z,0.80
2023-03-10T13:59:13.477Z,0.80
2023-03-10T14:01:47.244Z,0.90
2023-03-10T14:04:37.801Z,0.90
2023-03-10T14:07:12.747Z,0.90
2023-03-10T14:09:46.003Z,0.80
2023-03-10T14:12:34.816Z,0.80
2023-03-10T14:15:21.780Z,0.80
2023-03-10T14:18:13.719Z,0.80
2023-03-10T14:20:46.476Z,0.80
2023-03-10T14:23:18.296Z,0.80
2023-03-10T14:25:53.477Z,0.80
2023-03-10T14:28:26.602Z,0.80
2023-03-10T14:30:58.856Z,0.80
2023-03-10T14:33:31.009Z,0.70
2023-03-10T14:36:02.942Z,0.70
2023-03-10T14:38:34.786Z,0.70
2023-03-10T14:41:06.719Z,0.70
2023-03-10T14:43:39.374Z,0.70
2023-03-10T14:46:12.636Z,0.70
2023-03-10T14:48:46.027Z,0.60
2023-03-10T14:51:32.491Z,0.50
2023-03-10T14:54:14.048Z,0.40
2023-03-10T14:56:46.209Z,0.40
2023-03-10T14:59:18.487Z,0.40
2023-03-10T15:01:50.550Z,0.40
2023-03-10T15:04:22.502Z,0.40
2023-03-10T15:06:54.525Z,0.50
2023-03-10T15:09:26.349Z,0.50
2023-03-10T15:11:59.766Z,0.50
2023-03-10T15:14:31.601Z,0.40
2023-03-10T15:17:05.667Z,0.40
2023-03-10T15:19:37.486Z,0.30
2023-03-10T15:22:09.384Z,0.30
2023-03-10T15:24:41.293Z,0.30
2023-03-10T15:27:13.275Z,0.30
2023-03-10T15:29:47.563Z,0.30
2023-03-10T15:32:21.658Z,0.30
2023-03-10T15:34:53.615Z,0.30
2023-03-10T15:37:25.366Z,0.30
2023-03-10T15:39:57.209Z,0.30
2023-03-10T15:42:29.183Z,0.30
2023-03-10T15:45:04.830Z,0.30
2023-03-10T15:47:38.241Z,0.30
2023-03-10T15:50:11.019Z,0.30
2023-03-10T15:52:49.622Z,0.30
2023-03-10T15:55:21.493Z,0.30
2023-03-10T15:57:56.214Z,0.30
2023-03-10T16:00:30.677Z,0.30
2023-03-10T16:03:02.943Z,0.30
2023-03-10T16:05:34.940Z,0.30
2023-03-10T16:08:06.823Z,0.20
2023-03-10T16:10:41.016Z,0.20
2023-03-10T16:13:12.796Z,0.20
2023-03-10T16:15:44.569Z,0.20
2023-03-10T16:18:18.573Z,0.20
2023-03-10T16:20:59.470Z,0.20
2023-03-10T16:23:32.512Z,0.20
2023-03-10T16:26:07.834Z,0.20
2023-03-10T16:28:41.180Z,0.20
2023-03-10T16:31:14.167Z,0.20
2023-03-10T16:33:46.711Z,0.10
2023-03-10T16:36:20.180Z,0.10
2023-03-10T16:38:56.948Z,0.10
2023-03-10T16:41:29.919Z,0.10
2023-03-10T16:44:06.077Z,0.10
2023-03-10T16:46:38.224Z,0.10
2023-03-10T16:49:12.893Z,0.10
2023-03-10T16:51:45.458Z,0.10
2023-03-10T16:54:18.948Z,0.10
2023-03-10T16:56:52.209Z,0.00
2023-03-10T16:59:24.903Z,0.00
2023-03-10T17:01:56.796Z,0.00
2023-03-10T17:04:28.635Z,0.00
2023-03-10T17:07:00.387Z,0.00
2023-03-10T17:09:32.200Z,0.00
2023-03-10T17:12:04.328Z,0.00
2023-03-10T17:14:38.832Z,0.00
2023-03-10T17:17:12.700Z,0.00
2023-03-10T17:19:44.613Z,0.00
2023-03-10T17:22:16.462Z,0.00
2023-03-10T17:24:58.004Z,0.00
2023-03-10T17:27:29.757Z,0.00
2023-03-10T17:30:01.707Z,0.00
2023-03-10T17:32:37.220Z,0.00
2023-03-10T17:35:11.607Z,0.00
2023-03-10T17:37:44.840Z,0.00
2023-03-10T17:40:20.034Z,0.00
2023-03-10T17:42:53.261Z,0.00
2023-03-10T17:45:27.324Z,0.00
2023-03-10T17:47:59.478Z,0.00
2023-03-10T17:50:31.285Z,0.00
2023-03-10T17:53:03.076Z,0.00
2023-03-10T17:55:37.825Z,0.00
2023-03-10T17:58:09.653Z,0.00
2023-03-10T18:00:41.830Z,0.00
2023-03-10T18:03:14.159Z,0.00
2023-03-10T18:05:47.200Z,0.00
2023-03-10T18:08:19.003Z,0.00
2023-03-10T18:10:59.278Z,0.00
2023-03-10T18:13:33.338Z,0.00
2023-03-10T18:16:05.968Z,0.00
2023-03-10T18:18:38.200Z,0.00
2023-03-10T18:21:10.939Z,0.00
2023-03-10T18:23:43.022Z,0.00
2023-03-10T18:26:17.110Z,0.00
2023-03-10T18:28:50.835Z,0.00
2023-03-10T18:31:27.278Z,0.00
2023-03-10T18:33:59.431Z,0.00
2023-03-10T18:36:33.171Z,0.00
2023-03-10T18:39:07.372Z,0.00
2023-03-10T18:41:42.218Z,0.00
2023-03-10T18:44:14.249Z,0.00
2023-03-10T18:46:46.318Z,0.00
2023-03-10T18:49:18.197Z,0.00
2023-03-10T18:51:50.136Z,0.00
2023-03-10T18:54:21.950Z,0.10
2023-03-10T18:56:53.889Z,0.10
2023-03-10T18:59:26.047Z,0.00
2023-03-10T19:01:58.843Z,0.00
2023-03-10T19:04:30.858Z,0.00
2023-03-10T19:07:05.083Z,0.00
2023-03-10T19:09:36.921Z,0.10
2023-03-10T19:12:08.954Z,0.00
2023-03-10T19:14:40.925Z,0.00
2023-03-10T19:17:13.873Z,0.00
2023-03-10T19:19:48.221Z,0.00
2023-03-10T19:22:21.747Z,0.00
2023-03-10T19:24:53.663Z,0.00
2023-03-10T19:27:28.755Z,-0.10
2023-03-10T19:30:03.249Z,0.00
2023-03-10T19:32:39.845Z,-0.10
2023-03-10T19:35:12.889Z,-0.10
2023-03-10T19:37:45.914Z,0.00
2023-03-10T19:40:21.574Z,0.00
2023-03-10T19:43:02.348Z,-0.10
2023-03-10T19:45:37.477Z,-0.10
2023-03-10T19:48:15.340Z,-0.10
2023-03-10T19:50:55.946Z,-0.10
2023-03-10T19:53:28.961Z,-0.10
2023-03-10T19:56:04.860Z,-0.10
2023-03-10T19:58:39.759Z,-0.10
2023-03-10T20:01:20.180Z,-0.10
2023-03-10T20:03:53.519Z,-0.10
2023-03-10T20:06:25.591Z,-0.10
2023-03-10T20:08:57.902Z,-0.10
2023-03-10T20:11:29.700Z,-0.10
2023-03-10T20:14:07.227Z,-0.10
2023-03-10T20:16:39.414Z,-0.10
2023-03-10T20:19:11.824Z,-0.10
2023-03-10T20:21:43.754Z,-0.10
2023-03-10T20:24:15.869Z,-0.10
2023-03-10T20:26:49.744Z,-0.10
2023-03-10T20:29:23.451Z,-0.20
2023-03-10T20:31:57.431Z,-0.10
2023-03-10T20:34:34.280Z,-0.10
2023-03-10T20:37:06.093Z,-0.10
2023-03-10T20:39:38.025Z,-0.10
2023-03-10T20:42:13.107Z,-0.10
2023-03-10T20:44:45.155Z,-0.20
2023-03-10T20:47:25.516Z,-0.10
2023-03-10T20:50:06.114Z,-0.20
2023-03-10T20:52:46.243Z,-0.20
2023-03-10T20:55:20.380Z,-0.20
2023-03-10T20:57:53.529Z,-0.20
2023-03-10T21:00:26.313Z,-0.20
2023-03-10T21:02:58.262Z,-0.20
2023-03-10T21:05:31.009Z,-0.20
2023-03-10T21:08:02.892Z,-0.20
2023-03-10T21:10:39.144Z,-0.20
2023-03-10T21:13:13.102Z,-0.20
2023-03-10T21:15:50.629Z,-0.20
2023-03-10T21:18:23.741Z,-0.20
2023-03-10T21:20:57.017Z,-0.30
2023-03-10T21:23:31.869Z,-0.20
2023-03-10T21:26:09.162Z,-0.30
2023-03-10T21:28:42.277Z,-0.30
2023-03-10T21:31:15.107Z,-0.20
2023-03-10T21:33:47.463Z,-0.20
2023-03-10T21:36:24.983Z,-0.20
2023-03-10T21:38:59.344Z,-0.20
2023-03-10T21:41:31.464Z,-0.20
2023-03-10T21:44:03.478Z,-0.20
2023-03-10T21:46:35.914Z,-0.20
2023-03-10T21:49:09.108Z,-0.20
2023-03-10T21:51:43.507Z,-0.20
2023-03-10T21:54:15.332Z,-0.20
2023-03-10T21:56:59.387Z,-0.20
2023-03-10T21:59:31.195Z,-0.20
2023-03-10T22:02:03.664Z,-0.20
2023-03-10T22:04:35.562Z,-0.20
2023-03-10T22:07:07.987Z,-0.20
2023-03-10T22:09:42.498Z,-0.20
2023-03-10T22:12:14.534Z,-0.20
2023-03-10T22:14:47.755Z,-0.20
2023-03-10T22:17:19.618Z,-0.20
2023-03-10T22:19:52.245Z,-0.20
2023-03-10T22:22:26.922Z,-0.20
2023-03-10T22:25:00.038Z,-0.20
2023-03-10T22:27:34.394Z,-0.30
2023-03-10T22:30:06.540Z,-0.30
2023-03-10T22:32:40.988Z,-0.30
2023-03-10T22:35:13.260Z,-0.30
2023-03-10T22:37:45.395Z,-0.30
2023-03-10T22:40:19.002Z,-0.30
2023-03-10T22:42:51.135Z,-0.30
2023-03-10T22:45:24.409Z,-0.30
2023-03-10T22:47:57.610Z,-0.30
2023-03-10T22:50:34.401Z,-0.30
2023-03-10T22:53:08.112Z,-0.40
2023-03-10T22:55:42.566Z,-0.40
2023-03-10T22:58:16.375Z,-0.40
2023-03-10T23:00:48.450Z,-0.40
2023-03-10T23:03:20.412Z,-0.40
2023-03-10T23:05:52.231Z,-0.40
2023-03-10T23:08:24.540Z,-0.40
2023-03-10T23:10:58.833Z,-0.40
2023-03-10T23:13:30.631Z,-0.40
2023-03-10T23:16:02.589Z,-0.40
2023-03-10T23:18:34.482Z,-0.40
2023-03-10T23:21:09.097Z,-0.50
2023-03-10T23:23:43.834Z,-0.50
2023-03-10T23:26:15.879Z,-0.50
2023-03-10T23:28:47.828Z,-0.50
2023-03-10T23:31:22.603Z,-0.50
2023-03-10T23:33:54.460Z,-0.50
2023-03-10T23:36:26.199Z,-0.50
2023-03-10T23:38:58.121Z,-0.50
2023-03-10T23:41:30.070Z,-0.50
2023-03-10T23:44:01.890Z,-0.50
2023-03-10T23:46:33.835Z,-0.50
2023-03-10T23:49:05.704Z,-0.50
2023-03-10T23:51:37.522Z,-0.50
2023-03-10T23:54:09.400Z,-0.50
2023-03-10T23:56:41.273Z,-0.50
2023-03-10T23:59:13.204Z,-0.50
